»·PEaware :: N815PA KSNA-KMYF

N815PA :: KSNA-KMYF

FLIGHT INFORMATION

Flight Status: Arrived
Operator: Privately registered:
United States
More flights under this callsign
Pilot: Felix V. (26365)
Aircraft: SOCATA TBM-900
(TBM9)
More flights by this aircraft type
Origin: KSNA John Wayne-Orange Co
United States
Destination: KMYF Montgomery
United States
More flights between these airports :: More routes between these airports
Route: +V25 PACIF V208 LAX118R CARDI MZB320R MZB
File this flight plan on PilotEdge
Remarks: TEC route CSTP19
Altitude:
(Current/Filed)
9,000ft
Speed:
(Current/Filed)
300kts
Departed: 10-Nov-19 01:33 PM
Arrived: 10-Nov-19 02:07 PM
Distance/Time
Traveled:
63nm/0:34
Distance/Time
To Go:
Arrived

Flight Plot

Page will automatically refresh every two minutes.


Map Options




Map Legend


Flown Route
Filed Route
Departure Airport
Arrival Airport
Navaid (VOR, NDB)
Fix

Horizontal Profiles

Position Reports

Time Latitude Longitude Heading Altitude Ground
Speed
10-Nov-19 13:15 33.671851 -117.867127 206 59ft 0kts
10-Nov-19 13:16 33.671851 -117.867127 206 59ft 0kts
10-Nov-19 13:17 33.671851 -117.867127 206 59ft 0kts
10-Nov-19 13:18 33.671851 -117.867127 206 59ft 0kts
10-Nov-19 13:19 33.671851 -117.867127 206 59ft 0kts
10-Nov-19 13:20 33.671851 -117.867127 206 59ft 0kts
10-Nov-19 13:21 33.671851 -117.867127 206 59ft 0kts
10-Nov-19 13:22 33.671851 -117.867127 206 59ft 0kts
10-Nov-19 13:23 33.671851 -117.867127 206 59ft 0kts
10-Nov-19 13:24 33.671851 -117.867127 206 59ft 0kts
10-Nov-19 13:25 33.671851 -117.867127 206 59ft 0kts
10-Nov-19 13:26 33.671851 -117.867127 206 59ft 0kts
10-Nov-19 13:27 33.671795 -117.867566 297 59ft 13kts
10-Nov-19 13:28 33.675604 -117.866136 27 59ft 29kts
10-Nov-19 13:29 33.679985 -117.863686 296 59ft 0kts
10-Nov-19 13:30 33.679985 -117.863686 296 59ft 0kts
10-Nov-19 13:31 33.680008 -117.863741 296 59ft 4kts
10-Nov-19 13:32 33.659911 -117.873713 154 1248ft 133kts
10-Nov-19 13:33 33.624887 -117.873052 186 3901ft 127kts
10-Nov-19 13:34 33.589243 -117.880208 186 6313ft 137kts
10-Nov-19 13:35 33.550523 -117.887860 186 8964ft 152kts
10-Nov-19 13:36 33.492055 -117.897983 186 9047ft 249kts
10-Nov-19 13:37 33.423461 -117.893303 134 9038ft 258kts
10-Nov-19 13:38 33.369324 -117.835420 137 9027ft 262kts
10-Nov-19 13:39 33.313803 -117.777236 138 9026ft 267kts
10-Nov-19 13:40 33.279087 -117.703006 98 9026ft 267kts
10-Nov-19 13:41 33.265898 -117.615466 98 9010ft 267kts
10-Nov-19 13:42 33.230738 -117.539777 132 9010ft 270kts
10-Nov-19 13:43 33.178656 -117.474582 132 9009ft 270kts
10-Nov-19 13:44 33.123528 -117.414052 157 9004ft 270kts
10-Nov-19 13:45 33.055699 -117.376925 153 9007ft 264kts
10-Nov-19 13:46 32.990398 -117.340647 154 7799ft 246kts
10-Nov-19 13:47 32.930739 -117.307569 155 5764ft 227kts
10-Nov-19 13:48 32.877832 -117.278261 154 4996ft 181kts
10-Nov-19 13:49 32.834964 -117.254214 155 5019ft 166kts
10-Nov-19 13:50 32.792044 -117.230789 155 5024ft 170kts
10-Nov-19 13:51 32.774325 -117.181100 101 5026ft 174kts
10-Nov-19 13:53 32.764545 -117.117984 107 4025ft 197kts
10-Nov-19 13:54 32.747334 -117.062592 111 4017ft 165kts
10-Nov-19 13:55 32.730990 -117.011079 105 4024ft 168kts
10-Nov-19 13:56 32.741898 -116.962013 111 4034ft 168kts
10-Nov-19 13:57 32.700022 -116.955033 191 4023ft 168kts
10-Nov-19 13:58 32.690733 -116.918545 41 4030ft 167kts
10-Nov-19 13:59 32.725065 -116.881327 41 4017ft 165kts
10-Nov-19 14:00 32.753927 -116.886565 261 3989ft 117kts
10-Nov-19 14:01 32.748342 -116.923867 260 4023ft 114kts
10-Nov-19 14:02 32.746745 -116.962851 291 3733ft 135kts
10-Nov-19 14:03 32.763403 -117.005430 294 2514ft 114kts
10-Nov-19 14:04 32.776199 -117.037910 294 2235ft 135kts
10-Nov-19 14:05 32.792890 -117.080439 292 1403ft 121kts
10-Nov-19 14:06 32.807227 -117.116780 292 819ft 96kts
10-Nov-19 14:07 32.816188 -117.139736 297 419ft 26kts
10-Nov-19 14:08 32.815946 -117.141095 178 416ft 0kts
10-Nov-19 14:09 32.814845 -117.141990 117 416ft 21kts
10-Nov-19 14:10 32.813331 -117.141616 283 413ft 0kts
10-Nov-19 14:11 32.813331 -117.141616 283 413ft 0kts
10-Nov-19 14:12 32.813331 -117.141616 283 413ft 0kts
10-Nov-19 14:13 32.813331 -117.141616 283 413ft 0kts

Navigation Log

Ident Type
Flight plan parsing failed, navigation log unavailable